CheckWX is a tool to help pilots better visualize weather data.  It is not intended as a substitute for an official pre-flight weather briefing.

05:22:35 UTC

KPBH METAR
Price County Airport
Phillips, Wisconsin, USA
Current

28 mins ago

KPBH 200455Z AUTO 00000KT 10SM CLR M17/M19 A3028 RMK AO2 T11731195
Observed
Feb-20 @ 04:55 UTC
Visibility
16,093 meters
Flight Rules
VFR
Cloud Levels
  • Clear skies
Temperature
-17°C / 1°F
Dewpoint
-20°C / -4°F
Humidity
78%
Altimeter
30.28" Hg
Pressure
1025.42 hPa
Previous

48 mins ago

KPBH 200435Z AUTO 00000KT 10SM CLR M16/M19 A3030 RMK AO2 T11631188
Observed
Feb-20 @ 04:35 UTC
Visibility
16,093 meters
Flight Rules
VFR
Cloud Levels
  • Clear skies
Temperature
-16°C / 3°F
Dewpoint
-19°C / -2°F
Humidity
78%
Altimeter
30.3" Hg
Pressure
1026.12 hPa
Previous

1 hour ago

KPBH 200415Z AUTO 00000KT 10SM CLR M17/M20 A3032 RMK AO2 T11721197
Observed
Feb-20 @ 04:15 UTC
Visibility
16,093 meters
Flight Rules
VFR
Cloud Levels
  • Clear skies
Temperature
-17°C / 1°F
Dewpoint
-20°C / -4°F
Humidity
78%
Altimeter
30.32" Hg
Pressure
1026.72 hPa